sensor_id;sensor_type;location;lat;lon;timestamp;P1;durP1;ratioP1;P2;durP2;ratioP2
12369;SDS011;6249;52.128;9.986;2023-06-19T00:09:08;6.10;;;4.30;;
12369;SDS011;6249;52.128;9.986;2023-06-19T00:19:09;8.10;;;4.60;;
12369;SDS011;6249;52.128;9.986;2023-06-19T00:29:14;6.57;;;4.20;;
12369;SDS011;6249;52.128;9.986;2023-06-19T00:39:17;7.83;;;4.77;;
12369;SDS011;6249;52.128;9.986;2023-06-19T00:49:18;12.23;;;4.97;;
12369;SDS011;6249;52.128;9.986;2023-06-19T00:59:19;8.10;;;4.50;;
12369;SDS011;6249;52.128;9.986;2023-06-19T01:09:22;7.30;;;4.60;;
12369;SDS011;6249;52.128;9.986;2023-06-19T01:19:37;6.73;;;4.50;;
12369;SDS011;6249;52.128;9.986;2023-06-19T01:29:38;8.40;;;5.00;;
12369;SDS011;6249;52.128;9.986;2023-06-19T01:39:39;8.70;;;5.47;;
12369;SDS011;6249;52.128;9.986;2023-06-19T01:49:41;9.10;;;5.03;;
12369;SDS011;6249;52.128;9.986;2023-06-19T01:59:41;7.73;;;4.60;;
12369;SDS011;6249;52.128;9.986;2023-06-19T02:09:44;8.20;;;4.60;;
12369;SDS011;6249;52.128;9.986;2023-06-19T02:19:45;6.95;;;4.75;;
12369;SDS011;6249;52.128;9.986;2023-06-19T02:29:48;5.70;;;4.13;;
12369;SDS011;6249;52.128;9.986;2023-06-19T02:39:51;7.00;;;4.83;;
12369;SDS011;6249;52.128;9.986;2023-06-19T02:49:53;8.50;;;5.33;;
12369;SDS011;6249;52.128;9.986;2023-06-19T02:59:54;8.90;;;5.30;;
12369;SDS011;6249;52.128;9.986;2023-06-19T03:09:57;7.80;;;5.00;;
12369;SDS011;6249;52.128;9.986;2023-06-19T03:20:00;11.53;;;5.60;;
12369;SDS011;6249;52.128;9.986;2023-06-19T03:30:03;7.00;;;4.73;;
12369;SDS011;6249;52.128;9.986;2023-06-19T03:40:08;10.07;;;5.63;;
12369;SDS011;6249;52.128;9.986;2023-06-19T03:50:13;10.00;;;5.70;;
12369;SDS011;6249;52.128;9.986;2023-06-19T04:00:14;7.97;;;5.70;;
12369;SDS011;6249;52.128;9.986;2023-06-19T04:10:15;10.40;;;5.77;;
12369;SDS011;6249;52.128;9.986;2023-06-19T04:20:16;7.70;;;5.80;;
12369;SDS011;6249;52.128;9.986;2023-06-19T04:30:20;8.70;;;5.73;;
12369;SDS011;6249;52.128;9.986;2023-06-19T04:40:25;8.60;;;5.63;;
12369;SDS011;6249;52.128;9.986;2023-06-19T04:50:29;8.60;;;5.60;;
12369;SDS011;6249;52.128;9.986;2023-06-19T05:00:29;9.70;;;6.00;;
12369;SDS011;6249;52.128;9.986;2023-06-19T05:10:30;9.93;;;6.30;;
12369;SDS011;6249;52.128;9.986;2023-06-19T05:20:30;9.87;;;6.37;;
12369;SDS011;6249;52.128;9.986;2023-06-19T05:30:31;10.10;;;6.47;;
12369;SDS011;6249;52.128;9.986;2023-06-19T05:40:32;8.10;;;6.43;;
12369;SDS011;6249;52.128;9.986;2023-06-19T05:50:32;12.60;;;6.60;;
12369;SDS011;6249;52.128;9.986;2023-06-19T06:00:33;8.23;;;5.73;;
12369;SDS011;6249;52.128;9.986;2023-06-19T06:10:36;9.50;;;6.30;;
12369;SDS011;6249;52.128;9.986;2023-06-19T06:20:36;9.77;;;6.50;;
12369;SDS011;6249;52.128;9.986;2023-06-19T06:30:37;9.97;;;6.70;;
12369;SDS011;6249;52.128;9.986;2023-06-19T06:40:41;10.87;;;6.40;;
12369;SDS011;6249;52.128;9.986;2023-06-19T06:50:43;10.57;;;7.30;;
12369;SDS011;6249;52.128;9.986;2023-06-19T07:00:44;12.73;;;7.47;;
12369;SDS011;6249;52.128;9.986;2023-06-19T07:10:45;10.53;;;7.00;;
12369;SDS011;6249;52.128;9.986;2023-06-19T07:20:48;10.37;;;7.00;;
12369;SDS011;6249;52.128;9.986;2023-06-19T07:30:48;10.83;;;7.17;;
12369;SDS011;6249;52.128;9.986;2023-06-19T07:40:51;9.40;;;6.20;;
12369;SDS011;6249;52.128;9.986;2023-06-19T07:50:53;8.17;;;6.40;;
12369;SDS011;6249;52.128;9.986;2023-06-19T08:00:56;10.23;;;7.00;;
12369;SDS011;6249;52.128;9.986;2023-06-19T08:10:57;11.43;;;7.73;;
12369;SDS011;6249;52.128;9.986;2023-06-19T08:20:58;10.30;;;7.67;;
12369;SDS011;6249;52.128;9.986;2023-06-19T08:31:03;10.63;;;7.43;;
12369;SDS011;6249;52.128;9.986;2023-06-19T08:41:04;11.30;;;7.30;;
12369;SDS011;6249;52.128;9.986;2023-06-19T08:51:05;8.30;;;6.50;;
12369;SDS011;6249;52.128;9.986;2023-06-19T09:01:13;8.83;;;6.30;;
12369;SDS011;6249;52.128;9.986;2023-06-19T09:11:18;8.00;;;5.87;;
12369;SDS011;6249;52.128;9.986;2023-06-19T09:21:21;8.27;;;6.27;;
12369;SDS011;6249;52.128;9.986;2023-06-19T09:31:33;10.00;;;6.87;;
12369;SDS011;6249;52.128;9.986;2023-06-19T09:41:34;10.20;;;6.30;;
12369;SDS011;6249;52.128;9.986;2023-06-19T09:51:37;7.77;;;6.20;;
12369;SDS011;6249;52.128;9.986;2023-06-19T10:01:40;8.27;;;5.87;;
12369;SDS011;6249;52.128;9.986;2023-06-19T10:11:46;9.07;;;6.30;;
12369;SDS011;6249;52.128;9.986;2023-06-19T10:21:49;7.57;;;5.73;;
12369;SDS011;6249;52.128;9.986;2023-06-19T10:31:51;8.80;;;6.50;;
12369;SDS011;6249;52.128;9.986;2023-06-19T10:41:55;9.10;;;6.10;;
12369;SDS011;6249;52.128;9.986;2023-06-19T10:51:58;8.43;;;6.53;;
12369;SDS011;6249;52.128;9.986;2023-06-19T11:01:59;15.80;;;6.90;;
12369;SDS011;6249;52.128;9.986;2023-06-19T11:12:00;10.60;;;6.60;;
12369;SDS011;6249;52.128;9.986;2023-06-19T11:22:03;7.70;;;6.40;;
12369;SDS011;6249;52.128;9.986;2023-06-19T11:32:16;7.10;;;5.70;;
12369;SDS011;6249;52.128;9.986;2023-06-19T11:42:22;6.73;;;5.13;;
12369;SDS011;6249;52.128;9.986;2023-06-19T11:52:25;7.07;;;5.27;;
12369;SDS011;6249;52.128;9.986;2023-06-19T12:02:26;8.47;;;5.53;;
12369;SDS011;6249;52.128;9.986;2023-06-19T12:12:26;6.80;;;5.00;;
12369;SDS011;6249;52.128;9.986;2023-06-19T12:22:27;9.07;;;4.90;;
12369;SDS011;6249;52.128;9.986;2023-06-19T12:32:28;8.27;;;5.00;;
12369;SDS011;6249;52.128;9.986;2023-06-19T12:42:29;7.77;;;5.27;;
12369;SDS011;6249;52.128;9.986;2023-06-19T12:52:29;12.60;;;4.90;;
12369;SDS011;6249;52.128;9.986;2023-06-19T13:02:31;6.57;;;3.90;;
12369;SDS011;6249;52.128;9.986;2023-06-19T13:12:32;5.77;;;3.57;;
12369;SDS011;6249;52.128;9.986;2023-06-19T13:22:35;6.90;;;3.90;;
12369;SDS011;6249;52.128;9.986;2023-06-19T13:32:35;5.60;;;3.10;;
12369;SDS011;6249;52.128;9.986;2023-06-19T13:42:40;5.07;;;3.20;;
12369;SDS011;6249;52.128;9.986;2023-06-19T13:52:43;5.00;;;3.20;;
12369;SDS011;6249;52.128;9.986;2023-06-19T14:02:46;5.20;;;2.97;;
12369;SDS011;6249;52.128;9.986;2023-06-19T14:12:47;4.50;;;2.77;;
12369;SDS011;6249;52.128;9.986;2023-06-19T14:22:50;5.33;;;3.20;;
12369;SDS011;6249;52.128;9.986;2023-06-19T14:32:51;6.47;;;2.93;;
12369;SDS011;6249;52.128;9.986;2023-06-19T14:42:51;5.10;;;2.47;;
12369;SDS011;6249;52.128;9.986;2023-06-19T14:52:54;6.00;;;2.70;;
12369;SDS011;6249;52.128;9.986;2023-06-19T15:02:59;4.17;;;2.90;;
12369;SDS011;6249;52.128;9.986;2023-06-19T15:13:02;5.33;;;2.90;;
12369;SDS011;6249;52.128;9.986;2023-06-19T15:23:03;6.50;;;3.17;;
12369;SDS011;6249;52.128;9.986;2023-06-19T15:33:07;6.13;;;3.40;;
12369;SDS011;6249;52.128;9.986;2023-06-19T15:43:08;5.90;;;2.87;;
12369;SDS011;6249;52.128;9.986;2023-06-19T15:53:08;6.60;;;3.20;;
12369;SDS011;6249;52.128;9.986;2023-06-19T16:03:09;6.67;;;3.13;;
12369;SDS011;6249;52.128;9.986;2023-06-19T16:13:14;5.90;;;3.37;;
12369;SDS011;6249;52.128;9.986;2023-06-19T16:23:15;6.57;;;3.70;;
12369;SDS011;6249;52.128;9.986;2023-06-19T16:33:18;12.27;;;3.60;;
12369;SDS011;6249;52.128;9.986;2023-06-19T16:43:18;4.17;;;3.13;;
12369;SDS011;6249;52.128;9.986;2023-06-19T16:53:19;7.13;;;3.70;;
12369;SDS011;6249;52.128;9.986;2023-06-19T17:03:20;4.37;;;2.90;;
12369;SDS011;6249;52.128;9.986;2023-06-19T17:13:21;4.40;;;2.80;;
12369;SDS011;6249;52.128;9.986;2023-06-19T17:23:22;5.40;;;2.53;;
12369;SDS011;6249;52.128;9.986;2023-06-19T17:33:22;5.60;;;2.93;;
12369;SDS011;6249;52.128;9.986;2023-06-19T17:43:23;5.67;;;3.13;;
12369;SDS011;6249;52.128;9.986;2023-06-19T17:53:24;5.70;;;3.70;;
12369;SDS011;6249;52.128;9.986;2023-06-19T18:03:24;7.00;;;3.10;;
12369;SDS011;6249;52.128;9.986;2023-06-19T18:13:25;5.83;;;3.80;;
12369;SDS011;6249;52.128;9.986;2023-06-19T18:23:25;5.13;;;3.17;;
12369;SDS011;6249;52.128;9.986;2023-06-19T18:33:26;5.80;;;3.30;;
12369;SDS011;6249;52.128;9.986;2023-06-19T18:43:26;7.80;;;4.00;;
12369;SDS011;6249;52.128;9.986;2023-06-19T18:53:29;7.30;;;3.60;;
12369;SDS011;6249;52.128;9.986;2023-06-19T19:03:30;5.80;;;3.80;;
12369;SDS011;6249;52.128;9.986;2023-06-19T19:13:30;11.93;;;3.80;;
12369;SDS011;6249;52.128;9.986;2023-06-19T19:23:31;5.83;;;4.07;;
12369;SDS011;6249;52.128;9.986;2023-06-19T19:33:32;5.13;;;3.57;;
12369;SDS011;6249;52.128;9.986;2023-06-19T19:43:33;7.27;;;4.23;;
12369;SDS011;6249;52.128;9.986;2023-06-19T19:53:34;7.17;;;4.13;;
12369;SDS011;6249;52.128;9.986;2023-06-19T20:03:34;5.33;;;3.90;;
12369;SDS011;6249;52.128;9.986;2023-06-19T20:13:39;8.57;;;4.10;;
12369;SDS011;6249;52.128;9.986;2023-06-19T20:23:40;6.23;;;4.50;;
12369;SDS011;6249;52.128;9.986;2023-06-19T20:33:43;8.83;;;4.43;;
12369;SDS011;6249;52.128;9.986;2023-06-19T20:43:43;15.93;;;5.43;;
12369;SDS011;6249;52.128;9.986;2023-06-19T20:53:48;7.87;;;4.03;;
12369;SDS011;6249;52.128;9.986;2023-06-19T21:03:49;6.78;;;4.32;;
12369;SDS011;6249;52.128;9.986;2023-06-19T21:13:50;6.70;;;4.60;;
12369;SDS011;6249;52.128;9.986;2023-06-19T21:23:50;6.93;;;4.13;;
12369;SDS011;6249;52.128;9.986;2023-06-19T21:33:53;5.77;;;4.70;;
12369;SDS011;6249;52.128;9.986;2023-06-19T21:43:54;6.67;;;4.40;;
12369;SDS011;6249;52.128;9.986;2023-06-19T21:53:54;6.53;;;5.10;;
12369;SDS011;6249;52.128;9.986;2023-06-19T22:03:55;7.43;;;5.50;;
12369;SDS011;6249;52.128;9.986;2023-06-19T22:13:58;6.63;;;5.13;;
12369;SDS011;6249;52.128;9.986;2023-06-19T22:24:01;7.60;;;5.07;;
12369;SDS011;6249;52.128;9.986;2023-06-19T22:34:01;7.87;;;5.57;;
12369;SDS011;6249;52.128;9.986;2023-06-19T22:44:04;9.13;;;4.70;;
12369;SDS011;6249;52.128;9.986;2023-06-19T22:54:05;8.33;;;5.60;;
12369;SDS011;6249;52.128;9.986;2023-06-19T23:04:07;7.40;;;5.80;;
12369;SDS011;6249;52.128;9.986;2023-06-19T23:14:09;9.57;;;6.53;;
12369;SDS011;6249;52.128;9.986;2023-06-19T23:24:12;7.20;;;5.80;;
12369;SDS011;6249;52.128;9.986;2023-06-19T23:34:17;7.50;;;5.60;;
12369;SDS011;6249;52.128;9.986;2023-06-19T23:44:20;7.27;;;5.00;;
12369;SDS011;6249;52.128;9.986;2023-06-19T23:54:20;7.78;;;6.10;;
